Latest Weather Observations for Blackall

IDQ60801

Issued at 12:02 pm EST Wednesday 4 May 2016 (issued every 30 minutes, with the page automatically refreshed every 10 minutes)

About weather observations | Map of weather stations | Latest weather observations for QLD | Other Formats
Station Details ID: 036034 Name: BLACKALL AIRPORT Lat: -24.43 Lon: 145.43 Height: 281.3 m
Data from the previous 72 hours. | See also: Recent months at Blackall
Date/Time
EST
Temp
°C
App
Temp
°C
Dew
Point
Rel
Hum
%
Delta-T
°C
Wind Press
QNH
hPa
Press
MSL
hPa
Rain
since 9 am
mm
Dir
 
Spd
km/h
Gust
km/h
Spd
kts
Gust
kts
04/12:00pm 25.1 20.2 1.9 22 11.2 SSE 17 26 9 14 1018.0 1017.2 0.0
04/11:30am 24.5 19.3 2.6 24 10.7 ESE 19 28 10 15 1018.5 1017.7 0.0
04/11:00am 23.8 18.6 3.7 27 9.9 SE 20 30 11 16 1019.1 1018.4 0.0
04/10:30am 23.2 18.2 3.7 28 9.6 SE 19 28 10 15 1019.5 1018.8 0.0
04/10:00am 22.6 17.1 4.2 30 9.1 ESE 22 30 12 16 1019.6 1018.9 0.0
04/09:30am 21.2 15.7 3.9 32 8.5 SE 22 32 12 17 1019.9 1019.2 0.0
04/09:00am 20.0 15.2 4.9 37 7.4 SSE 19 28 10 15 1019.8 1019.1 0.0
04/08:30am 18.7 13.7 4.8 40 6.8 SE 20 32 11 17 1019.5 1018.8 0.0
04/08:00am 17.3 13.6 6.5 49 5.4 SSE 15 20 8 11 1019.2 1018.5 0.0
04/07:30am 15.3 12.2 7.3 59 4.0 SSE 13 19 7 10 1018.8 1018.1 0.0
04/07:00am 15.0 12.0 7.5 61 3.8 S 13 17 7 9 1018.5 1017.7 0.0
04/06:30am 15.2 12.7 8.0 62 3.7 S 11 15 6 8 1018.1 1017.3 0.0
04/06:00am 15.7 12.9 8.4 62 3.7 S 13 15 7 8 1017.6 1016.9 0.0
04/05:30am 15.8 14.0 9.5 66 3.3 S 9 13 5 7 1017.4 1016.7 0.0
04/05:00am 16.3 14.5 9.5 64 3.6 S 9 11 5 6 1016.9 1016.2 0.0
04/04:30am 16.8 14.7 9.7 63 3.8 S 11 13 6 7 1016.6 1015.9 0.0
04/04:00am 17.6 15.5 9.8 60 4.2 S 11 13 6 7 1016.6 1015.9 0.0
04/03:30am 18.3 15.8 9.6 57 4.7 S 13 17 7 9 1016.4 1015.7 0.0
04/03:00am 18.8 16.3 9.8 56 4.8 S 13 19 7 10 1016.3 1015.6 0.0
04/02:30am 19.3 16.8 9.8 54 5.1 S 13 20 7 11 1016.3 1015.6 0.0
04/02:00am 19.8 17.3 11.0 57 4.9 S 15 19 8 10 1016.4 1015.7 0.0
04/01:30am 20.1 18.1 12.8 63 4.2 SSW 15 20 8 11 1016.5 1015.8 0.0
04/01:00am 20.1 18.9 14.0 68 3.6 SSW 13 17 7 9 1016.5 1015.8 0.0
04/12:30am 20.4 20.1 14.3 68 3.6 SSW 9 13 5 7 1016.5 1015.8 0.0
04/12:00am 20.7 20.8 14.4 67 3.7 SSW 7 9 4 5 1016.5 1015.8 0.0
 
Date/Time
EST
Temp
°C
App
Temp
°C
Dew
Point
Rel
Hum
%
Delta-T
°C
Wind Press
QNH
hPa
Press
MSL
hPa
Rain
since 9 am
mm
Dir
 
Spd
km/h
Gust
km/h
Spd
kts
Gust
kts
03/11:30pm 21.2 21.2 14.1 64 4.2 S 7 11 4 6 1016.7 1016.0 0.0
03/11:00pm 21.5 20.9 14.6 65 4.1 S 11 17 6 9 1017.0 1016.3 0.0
03/10:30pm 21.6 21.8 15.7 69 3.6 S 9 11 5 6 1016.8 1016.1 0.0
03/10:00pm 21.7 23.9 16.4 72 3.2 CALM 0 0 0 0 1016.7 1016.0 0.0
03/09:30pm 21.8 24.2 17.0 74 3.0 CALM 0 0 0 0 1016.7 1016.0 0.0
03/09:00pm 21.8 23.6 17.4 76 2.7 S 4 6 2 3 1016.6 1015.9 0.0
03/08:30pm 21.9 23.2 17.1 74 3.0 SSW 6 9 3 5 1016.6 1015.9 0.0
03/08:00pm 22.1 23.2 17.0 73 3.2 SSW 7 9 4 5 1016.4 1015.7 0.0
03/07:30pm 22.1 23.4 17.2 74 3.0 SSW 6 6 3 3 1016.0 1015.3 0.0
03/07:00pm 22.2 23.2 16.9 72 3.3 SSW 7 9 4 5 1015.7 1015.0 0.0
03/06:30pm 22.1 22.8 17.0 73 3.2 SSW 9 13 5 7 1015.5 1014.8 0.0
03/06:00pm 22.2 22.9 17.1 73 3.2 SW 9 15 5 8 1015.4 1014.6 0.0
03/05:30pm 22.6 20.6 16.4 68 3.8 SW 22 33 12 18 1015.2 1014.4 0.0
03/05:00pm 26.0 25.4 15.7 53 6.3 SW 13 19 7 10 1014.6 1013.8 0.0
03/04:30pm 27.6 27.8 14.6 45 7.9 W 7 13 4 7 1013.7 1013.0 0.0
03/04:00pm 27.9 28.4 14.9 45 8.0 W 6 9 3 5 1013.8 1013.1 0.0
03/03:30pm 27.9 28.0 14.5 44 8.2 W 7 11 4 6 1013.6 1012.9 0.0
03/03:00pm 27.9 28.2 14.9 45 8.0 WSW 7 11 4 6 1013.5 1012.8 0.0
03/02:30pm 28.0 28.0 14.3 43 8.3 WNW 7 11 4 6 1013.7 1013.0 0.0
03/02:00pm 28.2 28.0 13.7 41 8.7 WSW 7 11 4 6 1013.6 1012.9 0.0
03/01:30pm 28.0 28.7 13.5 41 8.7 NW 2 7 1 4 1013.9 1013.2 0.0
03/01:00pm 27.8 27.5 14.4 43 8.1 SSW 9 15 5 8 1014.3 1013.5 0.0
03/12:30pm 27.6 27.5 14.9 45 7.8 SW 9 15 5 8 1014.8 1014.0 0.0
03/12:00pm 27.5 27.2 15.5 48 7.4 WSW 11 17 6 9 1015.2 1014.4 0.0
03/11:30am 26.5 27.2 15.5 50 6.8 WSW 6 11 3 6 1015.7 1015.0 0.0
03/11:00am 26.8 28.2 15.5 50 7.0 W 2 7 1 4 1016.1 1015.4 0.0
03/10:30am 25.8 26.7 15.2 52 6.5 W 4 11 2 6 1016.4 1015.7 0.0
03/10:00am 25.7 27.1 16.3 56 5.8 SW 4 9 2 5 1016.7 1016.0 0.0
03/09:30am 24.3 26.3 16.0 60 5.1 CALM 0 0 0 0 1016.8 1016.1 0.0
03/09:00am 23.0 24.9 16.8 68 3.8 ESE 2 6 1 3 1016.6 1015.9 5.4
03/08:30am 21.7 23.0 17.5 77 2.6 ESE 7 9 4 5 1016.6 1015.9 5.4
03/08:00am 20.2 21.3 17.2 83 1.9 E 7 9 4 5 1016.4 1015.7 5.4
03/07:30am 19.6 20.7 17.0 85 1.6 ESE 7 9 4 5 1016.3 1015.6 5.4
03/07:00am 19.1 20.0 16.7 86 1.5 ESE 7 9 4 5 1015.9 1015.2 5.4
03/06:30am 19.3 21.6 17.6 90 1.1 SSE 2 7 1 4 1015.7 1015.0 5.4
03/06:00am 19.5 22.2 17.8 90 1.1 CALM 0 6 0 3 1015.6 1014.9 5.4
03/05:30am 19.8 22.2 17.9 89 1.2 S 2 6 1 3 1015.2 1014.4 5.4
03/05:00am 20.2 22.1 18.5 90 1.1 SW 6 7 3 4 1015.2 1014.4 5.4
03/04:30am 20.4 22.2 18.7 90 1.1 NNE 7 9 4 5 1014.8 1014.0 5.4
03/04:00am 20.6 23.2 18.4 87 1.4 WSW 2 7 1 4 1014.8 1014.0 5.4
03/03:30am 20.7 23.6 18.1 85 1.6 CALM 0 0 0 0 1015.2 1014.4 5.4
03/03:00am 20.8 23.2 18.0 84 1.8 NNW 2 9 1 5 1015.0 1014.2 5.4
03/02:30am 20.9 23.7 17.9 83 1.9 CALM 0 0 0 0 1015.6 1014.9 5.4
03/02:00am 20.9 22.4 17.7 82 2.0 N 6 7 3 4 1015.8 1015.1 5.4
03/01:30am 20.7 23.2 18.1 85 1.6 N 2 6 1 3 1016.1 1015.4 5.4
03/01:00am 20.7 22.2 17.5 82 2.0 N 6 6 3 3 1016.4 1015.7 5.4
03/12:30am 20.8 22.2 17.8 83 1.9 N 7 9 4 5 1016.3 1015.6 5.4
03/12:00am 21.1 23.4 18.5 85 1.6 NE 4 6 2 3 1016.3 1015.6 5.4
 
Date/Time
EST
Temp
°C
App
Temp
°C
Dew
Point
Rel
Hum
%
Delta-T
°C
Wind Press
QNH
hPa
Press
MSL
hPa
Rain
since 9 am
mm
Dir
 
Spd
km/h
Gust
km/h
Spd
kts
Gust
kts
02/11:30pm 21.5 24.2 17.7 79 2.4 CALM 0 0 0 0 1016.6 1015.9 5.4
02/11:00pm 21.7 23.0 17.5 77 2.6 ESE 7 9 4 5 1016.8 1016.1 5.4
02/10:30pm 22.1 23.6 17.5 75 2.9 SE 6 9 3 5 1016.8 1016.1 5.4
02/10:00pm 22.5 23.0 17.4 73 3.2 E 11 15 6 8 1016.7 1016.0 5.4
02/09:30pm 22.8 23.4 17.7 73 3.2 E 11 13 6 7 1016.8 1016.1 5.4
02/09:00pm 23.2 23.8 17.7 71 3.5 ESE 11 17 6 9 1016.9 1016.2 5.4
02/08:30pm 23.4 24.0 17.6 70 3.6 ESE 11 17 6 9 1017.0 1016.3 5.4
02/08:00pm 23.7 23.2 17.7 69 3.8 SE 17 24 9 13 1016.9 1016.2 5.4
02/07:30pm 23.8 23.3 16.8 65 4.4 SSE 15 22 8 12 1016.8 1016.1 5.4
02/07:00pm 23.9 22.6 16.7 64 4.5 SSE 19 30 10 16 1016.6 1015.9 5.4
02/06:30pm 24.0 22.1 16.8 64 4.5 S 22 35 12 19 1016.5 1015.8 5.4
02/06:00pm 24.6 22.3 17.6 65 4.4 S 26 35 14 19 1015.8 1015.1 5.4
02/05:43pm 25.1 22.7 18.3 66 4.3 S 28 46 15 25 1015.6 1014.9 5.4
02/05:30pm 25.7 22.4 17.1 59 5.4 S 30 39 16 21 1015.4 1014.6 5.4
02/05:00pm 26.6 24.0 16.8 55 6.2 S 26 39 14 21 1015.2 1014.4 5.4
02/04:30pm 24.9 27.0 20.2 75 3.1 WNW 9 11 5 6 1014.6 1013.8 5.4
02/04:00pm 24.5 24.9 19.1 72 3.5 SSW 15 20 8 11 1014.0 1013.3 5.0
02/03:30pm 24.8 22.6 18.7 69 3.9 SE 28 35 15 19 1013.3 1012.6 3.0
02/03:14pm 25.6 24.1 15.3 53 6.3 WNW 17 46 9 25 1013.5 1012.8 1.2
02/03:00pm 32.0 31.6 14.2 34 11.0 NE 9 13 5 7 1012.7 1012.0 0.0
02/02:30pm 32.3 30.8 13.0 31 11.7 N 13 17 7 9 1012.9 1012.2 0.0
02/02:00pm 33.2 32.4 12.8 29 12.4 WNW 9 22 5 12 1013.0 1012.3 0.0
02/01:30pm 33.0 32.3 13.1 30 12.1 N 9 17 5 9 1013.5 1012.8 0.0
02/01:00pm 32.8 31.8 12.4 29 12.3 NW 9 19 5 10 1013.9 1013.2 0.0
02/12:30pm 33.2 31.6 12.8 29 12.4 NW 13 19 7 10 1014.3 1013.5 0.0
02/12:00pm 32.5 29.7 12.7 30 11.9 N 19 28 10 15 1014.9 1014.1 0.0
02/11:30am 32.3 29.6 13.0 31 11.7 N 19 30 10 16 1015.3 1014.5 0.0
02/11:00am 31.5 28.4 13.3 33 11.0 N 22 30 12 16 1015.7 1015.0 0.0
02/10:30am 31.1 28.1 13.8 34 10.6 N 22 32 12 17 1016.2 1015.5 0.0
02/10:00am 30.0 27.0 13.7 37 9.9 N 22 35 12 19 1016.5 1015.8 0.0
02/09:30am 28.8 25.9 15.0 43 8.5 N 24 33 13 18 1016.5 1015.8 0.0
02/09:00am 27.5 24.9 14.8 45 7.8 N 22 30 12 16 1016.4 1015.7 0.0
02/08:30am 26.2 24.7 14.3 48 7.2 NNE 15 19 8 10 1016.2 1015.5 0.0
02/08:00am 23.5 22.9 13.4 53 5.9 NE 9 13 5 7 1016.0 1015.3 0.0
02/07:30am 21.2 20.8 12.9 59 4.8 NE 7 9 4 5 1015.9 1015.2 0.0
02/07:00am 21.1 20.6 12.8 59 4.8 NE 7 11 4 6 1015.7 1015.0 0.0
02/06:30am 21.0 20.6 12.9 60 4.7 ENE 7 11 4 6 1015.2 1014.4 0.0
02/06:00am 20.3 19.7 12.3 60 4.5 E 7 7 4 4 1014.9 1014.1 0.0
02/05:30am 20.7 19.8 12.7 60 4.6 E 9 9 5 5 1014.7 1013.9 0.0
02/05:00am 21.0 20.5 12.7 59 4.8 E 7 7 4 4 1014.6 1013.8 0.0
02/04:30am 21.3 20.8 12.7 58 4.9 E 7 9 4 5 1014.4 1013.6 0.0
02/04:00am 21.5 20.6 12.6 57 5.1 ESE 9 11 5 6 1014.5 1013.7 0.0
02/03:30am 21.9 21.5 13.0 57 5.2 ESE 7 7 4 4 1014.5 1013.7 0.0
02/03:00am 22.2 22.0 13.0 56 5.3 E 6 9 3 5 1014.6 1013.8 0.0
02/02:30am 22.7 22.3 12.9 54 5.7 ESE 7 11 4 6 1014.7 1013.9 0.0
02/02:00am 23.0 22.3 13.2 54 5.7 E 9 11 5 6 1014.9 1014.1 0.0
02/01:30am 23.2 22.8 13.1 53 5.9 E 7 9 4 5 1015.1 1014.3 0.0
02/01:00am 23.5 23.1 13.1 52 6.1 SE 7 7 4 4 1015.4 1014.6 0.0
02/12:30am 24.1 23.3 13.0 50 6.5 SE 9 11 5 6 1015.6 1014.9 0.0
02/12:00am 24.5 23.7 12.8 48 6.8 ESE 9 13 5 7 1016.0 1015.3 0.0
 
Date/Time
EST
Temp
°C
App
Temp
°C
Dew
Point
Rel
Hum
%
Delta-T
°C
Wind Press
QNH
hPa
Press
MSL
hPa
Rain
since 9 am
mm
Dir
 
Spd
km/h
Gust
km/h
Spd
kts
Gust
kts
01/11:30pm 25.3 24.1 12.9 46 7.3 SSE 11 15 6 8 1016.3 1015.6 0.0
01/11:00pm 26.0 25.0 13.5 46 7.4 SSE 11 15 6 8 1016.3 1015.6 0.0
01/10:30pm 25.9 25.0 12.7 44 7.7 ESE 9 13 5 7 1016.4 1015.7 0.0
01/10:00pm 26.5 25.9 13.6 45 7.7 E 9 20 5 11 1016.6 1015.9 0.0
01/09:30pm 24.5 25.2 12.1 46 7.2 CALM 0 0 0 0 1016.2 1015.5 0.0
01/09:00pm 25.4 25.0 12.3 44 7.6 SE 6 7 3 4 1016.2 1015.5 0.0
01/08:30pm 25.4 24.7 11.9 43 7.8 ESE 7 9 4 5 1016.2 1015.5 0.0
01/08:00pm 26.2 25.8 12.3 42 8.1 SE 6 9 3 5 1016.0 1015.3 0.0
01/07:30pm 27.1 27.7 12.0 39 8.8 CALM 0 0 0 0 1015.7 1015.0 0.0
01/07:00pm 28.6 29.4 12.5 37 9.5 CALM 0 0 0 0 1015.5 1014.8 0.0
01/06:30pm 29.7 30.4 12.2 34 10.4 CALM 0 0 0 0 1015.1 1014.3 0.0
01/06:00pm 31.1 31.9 12.5 32 11.1 CALM 0 0 0 0 1014.9 1014.1 0.0
01/05:30pm 32.3 32.7 12.5 30 11.9 E 2 7 1 4 1014.5 1013.7 0.0
01/05:00pm 32.7 33.4 12.3 28 12.2 CALM 0 0 0 0 1014.4 1013.6 0.0
01/04:30pm 33.5 33.9 12.5 28 12.7 WSW 2 11 1 6 1014.2 1013.4 0.0
01/04:00pm 33.3 33.1 12.9 29 12.4 NNW 6 11 3 6 1014.0 1013.3 0.0
01/03:30pm 33.0 32.5 12.6 29 12.3 SW 7 13 4 7 1014.2 1013.4 0.0
01/03:00pm 34.5 34.2 13.3 27 13.0 WNW 7 13 4 7 1014.2 1013.4 0.0
01/02:30pm 33.4 32.6 12.9 28 12.4 W 9 17 5 9 1014.3 1013.5 0.0
01/02:00pm 33.2 32.5 13.3 30 12.1 NE 9 22 5 12 1014.5 1013.7 0.0
01/01:30pm 32.8 32.7 13.9 31 11.6 N 7 15 4 8 1015.0 1014.2 0.0
01/01:00pm 32.8 32.1 14.4 33 11.4 NNW 11 20 6 11 1015.4 1014.6 0.0
01/12:30pm 32.0 31.6 14.2 34 11.0 NNE 9 17 5 9 1015.7 1015.0 0.0

Other Formats:

Comma delimited format used in spreadsheet applications
http://www.bom.gov.au/fwo/IDQ60801/IDQ60801.95351.axf

JavaScript Object Notation format (JSON) in row-major order
http://www.bom.gov.au/fwo/IDQ60801/IDQ60801.95351.json